Joncade — WDF3627 — position and weather

sailwx.info

Track history (hours):
 
Tides and Currents Weather Stations Pressure Air Temp Water Temp Dewpoint Dewpoint Depression Visibility Wind Speed Wind Dir Waves Ship Positions

Joncade

Owner: Gulf Logistics, LLC, Larose, LA. More information available from US FCC via Universal Licensing System and Coast Guard Vessel Documentation Center.

Last reported at 2017-Sep-21 21:15 UTC. Time now 2017-Sep-22 09:44 UTC.
Position N 29°38' W 092°16'.

Length 58 m; draft 2.5 m.

MMSI: 367442150.

Date/timePositionNaut miles runAvg speedWind from/ knotsBaromVisibWave heightAir tempDewpointWater temp
2017-Sep-21 21:15N 29°38' W 092°16'521.2
2017-Sep-21 21:00N 29°43' W 092°15'5 8.8
2017-Sep-21 20:30N 29°47' W 092°11'0 0.0
2017-Sep-21 20:00N 29°47' W 092°11'0 0.0
2017-Sep-21 19:27N 29°47' W 092°11'0 0.0
2017-Sep-21 18:59N 29°47' W 092°11'0 0.0
2017-Sep-21 18:29N 29°47' W 092°11'0 0.0
2017-Sep-21 18:00N 29°47' W 092°11'0 0.0
2017-Sep-21 17:30N 29°47' W 092°11'0 0.0
2017-Sep-21 17:00N 29°47' W 092°11'0 0.0
2017-Sep-21 16:24N 29°47' W 092°11'0 0.0
2017-Sep-21 16:00N 29°47' W 092°11'611.7
2017-Sep-21 15:31N 29°42' W 092°15'5 0.8
2017-Sep-21 09:39N 29°38' W 092°16'214.7
2017-Sep-21 09:30N 29°40' W 092°15'816.2
2017-Sep-21 09:01N 29°46' W 092°11'1 1.5
2017-Sep-21 08:31N 29°47' W 092°11'0 0.0
2017-Sep-21 08:00N 29°47' W 092°11'0 0.0
2017-Sep-21 07:30N 29°47' W 092°11'0 0.0
2017-Sep-21 07:01N 29°47' W 092°11'0 0.0
2017-Sep-21 06:31N 29°47' W 092°11'0 0.0
2017-Sep-21 06:00N 29°47' W 092°11'0 0.0
2017-Sep-21 05:30N 29°47' W 092°11'0 0.0
2017-Sep-21 05:01N 29°47' W 092°11'0 0.0
2017-Sep-21 04:30N 29°47' W 092°11'0 0.0
2017-Sep-21 04:01N 29°47' W 092°11'0 0.0
2017-Sep-21 03:31N 29°47' W 092°11'0 0.0
2017-Sep-21 03:01N 29°47' W 092°11'0 0.0
2017-Sep-21 02:31N 29°47' W 092°11'1 2.1
2017-Sep-21 02:01N 29°46' W 092°11'816.1
2017-Sep-21 01:30N 29°39' W 092°16'2 0.3
2017-Sep-20 19:19N 29°40' W 092°15'619.2
2017-Sep-20 19:00N 29°46' W 092°12'1 2.7
2017-Sep-20 18:28N 29°47' W 092°11'0 0.0
2017-Sep-20 17:58N 29°47' W 092°11'0 0.0
2017-Sep-20 17:28N 29°47' W 092°11'0 0.0
2017-Sep-20 16:58N 29°47' W 092°11'0 0.0
2017-Sep-20 16:28N 29°47' W 092°11'0 0.0
2017-Sep-20 15:58N 29°47' W 092°11'0 0.1
2017-Sep-20 15:28N 29°47' W 092°11'2 3.4
2017-Sep-20 15:01N 29°45' W 092°12'7 0.5
2017-Sep-19 23:14N 29°39' W 092°16'625.1
2017-Sep-19 23:01N 29°44' W 092°14'4 7.1
2017-Sep-19 22:30N 29°47' W 092°11'1 1.3
2017-Sep-19 22:00N 29°47' W 092°11'2 3.9
2017-Sep-19 21:30N 29°48' W 092°09'0 0.0
2017-Sep-19 21:00N 29°48' W 092°09'0 0.0
2017-Sep-19 20:30N 29°48' W 092°09'1 2.6
2017-Sep-19 20:00N 29°47' W 092°10'714.3
2017-Sep-19 19:30N 29°41' W 092°15'4 0.5
2017-Sep-19 12:03N 29°38' W 092°16'123.9
2017-Sep-19 12:00N 29°39' W 092°16'918.2
2017-Sep-19 11:30N 29°47' W 092°11'1 1.1
2017-Sep-19 11:00N 29°47' W 092°11'0 0.0
2017-Sep-19 10:30N 29°47' W 092°11'0 0.0
2017-Sep-19 10:00N 29°47' W 092°11'0 0.0
2017-Sep-19 09:30N 29°47' W 092°11'0 0.0
2017-Sep-19 09:00N 29°47' W 092°11'0 0.0
2017-Sep-19 08:30N 29°47' W 092°11'0 0.0
2017-Sep-19 08:00N 29°47' W 092°11'0 0.0
2017-Sep-19 07:30N 29°47' W 092°11'0 0.0
2017-Sep-19 07:00N 29°47' W 092°11'0 0.0
2017-Sep-19 06:30N 29°47' W 092°11'0 0.0
2017-Sep-19 06:00N 29°47' W 092°11'0 0.0
2017-Sep-19 05:30N 29°47' W 092°11'1 1.5
2017-Sep-19 05:00N 29°47' W 092°10'714.7
2017-Sep-19 04:30N 29°40' W 092°15'4 0.2
2017-Sep-18 12:40N 29°37' W 092°17'315.2
2017-Sep-18 12:30N 29°39' W 092°16'816.8
2017-Sep-18 12:00N 29°46' W 092°11'1 1.5
2017-Sep-18 11:30N 29°47' W 092°11'0 0.0
2017-Sep-18 11:00N 29°47' W 092°11'0 0.0
2017-Sep-18 10:30N 29°47' W 092°11'0 0.0
2017-Sep-18 10:00N 29°47' W 092°11'0 0.0
2017-Sep-18 09:30N 29°47' W 092°11'0 0.0
2017-Sep-18 09:00N 29°47' W 092°11'0 0.0
2017-Sep-18 08:30N 29°47' W 092°11'0 0.0
2017-Sep-18 08:00N 29°47' W 092°11'0 0.0
2017-Sep-18 07:30N 29°47' W 092°11'0 0.0
2017-Sep-18 07:00N 29°47' W 092°11'0 0.0
2017-Sep-18 06:30N 29°47' W 092°11'0 0.0
2017-Sep-18 06:00N 29°47' W 092°11'0 0.0
2017-Sep-18 05:30N 29°47' W 092°11'0 0.0
2017-Sep-18 05:00N 29°47' W 092°11'0 0.0
2017-Sep-18 04:30N 29°47' W 092°11'0 0.0
2017-Sep-18 04:00N 29°47' W 092°11'0 0.0
2017-Sep-18 03:30N 29°47' W 092°11'0 0.0
2017-Sep-18 03:00N 29°47' W 092°11'0 0.0
2017-Sep-18 02:30N 29°47' W 092°11'0 0.0
2017-Sep-18 02:00N 29°47' W 092°11'0 0.0
2017-Sep-18 01:30N 29°47' W 092°11'0 0.0
2017-Sep-18 01:00N 29°47' W 092°11'2 4.2
2017-Sep-18 00:30N 29°47' W 092°09'1 1.6
2017-Sep-18 00:00N 29°47' W 092°10'1 2.7
2017-Sep-17 23:30N 29°47' W 092°11'0 0.0
2017-Sep-17 23:00N 29°47' W 092°11'0 0.0
2017-Sep-17 22:30N 29°47' W 092°11'0 0.0
2017-Sep-17 22:00N 29°47' W 092°11'0 0.0
2017-Sep-17 21:30N 29°47' W 092°11'0 0.0
2017-Sep-17 21:00N 29°47' W 092°11'0 0.0
2017-Sep-17 20:30N 29°47' W 092°11'0 0.0
2017-Sep-17 20:00N 29°47' W 092°11'0 0.0
2017-Sep-17 19:30N 29°47' W 092°11'0 0.0
2017-Sep-17 19:00N 29°47' W 092°11'0 0.0
2017-Sep-17 18:30N 29°47' W 092°11'0 0.0
2017-Sep-17 18:00N 29°47' W 092°11'0 0.0
2017-Sep-17 17:30N 29°47' W 092°11'0 0.0
2017-Sep-17 17:00N 29°47' W 092°11'0 0.0
2017-Sep-17 16:30N 29°47' W 092°11'0 0.0
2017-Sep-17 16:00N 29°47' W 092°11'0 0.0
2017-Sep-17 15:30N 29°47' W 092°11'0 0.0
2017-Sep-17 15:00N 29°47' W 092°11'0 0.0
2017-Sep-17 14:30N 29°47' W 092°11'0 0.0
2017-Sep-17 14:00N 29°47' W 092°11'0 0.7
2017-Sep-17 13:30N 29°47' W 092°11'815.8
2017-Sep-17 13:00N 29°40' W 092°15'1 0.1
2017-Sep-17 04:53N 29°41' W 092°15'410.3
2017-Sep-17 04:30N 29°44' W 092°14'3 6.6
2017-Sep-17 04:00N 29°47' W 092°11'0 0.0
2017-Sep-17 03:30N 29°47' W 092°11'0 0.0
2017-Sep-17 03:00N 29°47' W 092°11'0 0.0
2017-Sep-17 02:30N 29°47' W 092°11'2 4.4
2017-Sep-17 02:01N 29°47' W 092°09'0 0.7
2017-Sep-17 01:30N 29°47' W 092°09'0 0.8
2017-Sep-17 01:00N 29°47' W 092°09'2 3.7
2017-Sep-17 00:30N 29°47' W 092°11'715.0
2017-Sep-17 00:01N 29°40' W 092°15'2 0.2
2017-Sep-16 14:40N 29°38' W 092°16'214.9
2017-Sep-16 14:30N 29°41' W 092°15'714.5
2017-Sep-16 14:00N 29°47' W 092°11'1 1.3
2017-Sep-16 13:31N 29°47' W 092°11'0 0.0
2017-Sep-16 13:00N 29°47' W 092°11'0 0.0
2017-Sep-16 12:31N 29°47' W 092°11'0 0.0
2017-Sep-16 12:01N 29°47' W 092°11'0 0.0
2017-Sep-16 11:31N 29°47' W 092°11'0 0.1
2017-Sep-16 11:01N 29°47' W 092°11'0 0.0
2017-Sep-16 10:31N 29°47' W 092°11'0 0.0
2017-Sep-16 10:01N 29°47' W 092°11'0 0.0
2017-Sep-16 09:31N 29°47' W 092°11'0 0.0
2017-Sep-16 09:01N 29°47' W 092°11'0 0.0
2017-Sep-16 08:30N 29°47' W 092°11'0 0.0
2017-Sep-16 08:01N 29°47' W 092°11'0 0.0
2017-Sep-16 07:31N 29°47' W 092°11'0 0.0
2017-Sep-16 07:01N 29°47' W 092°11'0 0.0
2017-Sep-16 06:31N 29°47' W 092°11'0 0.0
2017-Sep-16 06:01N 29°47' W 092°11'0 0.0
2017-Sep-16 05:31N 29°47' W 092°11'0 0.0
2017-Sep-16 05:01N 29°47' W 092°11'1 1.3
2017-Sep-16 04:31N 29°47' W 092°11'918.5
2017-Sep-16 04:01N 29°39' W 092°16'3 1.3
2017-Sep-16 02:01N 29°41' W 092°15'712.6
2017-Sep-16 01:29N 29°47' W 092°11'0 0.2
2017-Sep-16 01:00N 29°47' W 092°11'0 0.0
2017-Sep-16 00:30N 29°47' W 092°11'612.2
2017-Sep-16 00:01N 29°42' W 092°15'3 0.1
2017-Sep-14 17:34N 29°38' W 092°16'215.9
2017-Sep-14 17:25N 29°41' W 092°15'716.7
2017-Sep-14 17:00N 29°46' W 092°11'1 1.5
2017-Sep-14 16:30N 29°47' W 092°11'0 0.0
2017-Sep-14 16:00N 29°47' W 092°11'0 0.0
2017-Sep-14 15:30N 29°47' W 092°11'2 3.4
2017-Sep-14 15:01N 29°45' W 092°12'8 1.1
2017-Sep-14 08:08N 29°38' W 092°16'217.5
2017-Sep-14 08:00N 29°40' W 092°15'714.3
2017-Sep-14 07:30N 29°46' W 092°11'1 1.5
2017-Sep-14 07:00N 29°47' W 092°11'0 0.0
2017-Sep-14 06:30N 29°47' W 092°11'0 0.0
2017-Sep-14 06:00N 29°47' W 092°11'0 0.0
2017-Sep-14 05:30N 29°47' W 092°11'0 0.0
2017-Sep-14 05:00N 29°47' W 092°11'0 0.0
2017-Sep-14 04:30N 29°47' W 092°11'0 0.0
2017-Sep-14 04:00N 29°47' W 092°11'0 0.0
2017-Sep-14 03:31N 29°47' W 092°11'0 0.0
2017-Sep-14 03:00N 29°47' W 092°11'0 0.0
2017-Sep-14 02:30N 29°47' W 092°11'0 0.0
2017-Sep-14 02:00N 29°47' W 092°11'0 0.0
2017-Sep-14 01:30N 29°47' W 092°11'0 0.0
2017-Sep-14 01:00N 29°47' W 092°11'0 0.0
2017-Sep-14 00:30N 29°47' W 092°11'1 1.5
2017-Sep-14 00:01N 29°46' W 092°11'1120.9
2017-Sep-13 23:30N 29°37' W 092°17'1 0.2
2017-Sep-13 17:46N 29°38' W 092°16'414.1
2017-Sep-13 17:31N 29°42' W 092°15'611.8
2017-Sep-13 17:00N 29°47' W 092°11'0 0.0
2017-Sep-13 16:30N 29°47' W 092°11'0 0.0
2017-Sep-13 16:00N 29°47' W 092°11'0 0.0
2017-Sep-13 15:30N 29°47' W 092°11'0 0.0
2017-Sep-13 15:00N 29°47' W 092°11'0 0.0
2017-Sep-13 14:30N 29°47' W 092°11'0 0.0
2017-Sep-13 14:00N 29°47' W 092°11'0 0.0
2017-Sep-13 13:30N 29°47' W 092°11'0 0.0
2017-Sep-13 13:00N 29°47' W 092°11'0 0.0
2017-Sep-13 12:30N 29°47' W 092°11'0 0.0
2017-Sep-13 12:00N 29°47' W 092°11'0 0.0
2017-Sep-13 11:30N 29°47' W 092°11'0 0.0
2017-Sep-13 11:00N 29°47' W 092°11'0 0.1
2017-Sep-13 10:30N 29°47' W 092°11'0 0.0
2017-Sep-13 10:00N 29°47' W 092°11'0 0.0
2017-Sep-13 09:30N 29°47' W 092°11'0 0.0
2017-Sep-13 09:00N 29°47' W 092°11'0 0.0
2017-Sep-13 08:30N 29°47' W 092°11'0 0.0
2017-Sep-13 08:00N 29°47' W 092°11'0 0.0
2017-Sep-13 07:30N 29°47' W 092°11'0 0.0
2017-Sep-13 07:00N 29°47' W 092°11'0 0.0
2017-Sep-13 06:30N 29°47' W 092°11'0 0.0
2017-Sep-13 06:00N 29°47' W 092°11'0 0.0
2017-Sep-13 05:30N 29°47' W 092°11'0 0.0
2017-Sep-13 05:00N 29°47' W 092°11'0 0.0
2017-Sep-13 04:30N 29°47' W 092°11'0 0.0
2017-Sep-13 04:00N 29°47' W 092°11'1 1.7
2017-Sep-13 03:31N 29°46' W 092°11'1222.1
2017-Sep-13 02:58N 29°36' W 092°18'5 0.6
2017-Sep-12 17:35N 29°40' W 092°15'114.5
2017-Sep-12 17:30N 29°42' W 092°15'612.3
2017-Sep-12 17:01N 29°47' W 092°11'0 0.2
2017-Sep-12 16:31N 29°47' W 092°11'2 4.6
2017-Sep-12 16:01N 29°47' W 092°09'0 0.0
2017-Sep-12 15:30N 29°47' W 092°09'0 0.1
2017-Sep-12 15:00N 29°47' W 092°09'2 4.7
2017-Sep-12 14:31N 29°47' W 092°11'0 0.0
2017-Sep-12 14:00N 29°47' W 092°11'0 0.0
2017-Sep-12 13:29N 29°47' W 092°11'613.0
2017-Sep-12 12:59N 29°41' W 092°15'1 0.1
2017-Sep-12 06:26N 29°40' W 092°15'717.3
2017-Sep-12 06:01N 29°47' W 092°11'0 0.2
2017-Sep-12 05:29N 29°47' W 092°11'0 0.0
2017-Sep-12 05:00N 29°47' W 092°11'0 0.0
2017-Sep-12 04:30N 29°47' W 092°11'0 0.0
2017-Sep-12 04:00N 29°47' W 092°11'0 0.0
2017-Sep-12 03:30N 29°47' W 092°11'3 6.9
2017-Sep-12 03:01N 29°44' W 092°14'  
Track history (hours):
 
Tides and Currents Weather Stations Pressure Air Temp Water Temp Dewpoint Dewpoint Depression Visibility Wind Speed Wind Dir Waves Ship Positions

Joncade

Owner: Gulf Logistics, LLC, Larose, LA. More information available from US FCC via Universal Licensing System and Coast Guard Vessel Documentation Center.

Last reported at 2017-Sep-21 21:15 UTC. Time now 2017-Sep-22 09:44 UTC.
Position N 29°38' W 092°16'.

Length 58 m; draft 2.5 m.

MMSI: 367442150.

Date/timePositionNaut miles runAvg speedWind from/ knotsBaromVisibWave heightAir tempDewpointWater temp
2017-Sep-21 21:15N 29°38' W 092°16'521.2
2017-Sep-21 21:00N 29°43' W 092°15'5 8.8
2017-Sep-21 20:30N 29°47' W 092°11'0 0.0
2017-Sep-21 20:00N 29°47' W 092°11'0 0.0
2017-Sep-21 19:27N 29°47' W 092°11'0 0.0
2017-Sep-21 18:59N 29°47' W 092°11'0 0.0
2017-Sep-21 18:29N 29°47' W 092°11'0 0.0
2017-Sep-21 18:00N 29°47' W 092°11'0 0.0
2017-Sep-21 17:30N 29°47' W 092°11'0 0.0
2017-Sep-21 17:00N 29°47' W 092°11'0 0.0
2017-Sep-21 16:24N 29°47' W 092°11'0 0.0
2017-Sep-21 16:00N 29°47' W 092°11'611.7
2017-Sep-21 15:31N 29°42' W 092°15'5 0.8
2017-Sep-21 09:39N 29°38' W 092°16'214.7
2017-Sep-21 09:30N 29°40' W 092°15'816.2
2017-Sep-21 09:01N 29°46' W 092°11'1 1.5
2017-Sep-21 08:31N 29°47' W 092°11'0 0.0
2017-Sep-21 08:00N 29°47' W 092°11'0 0.0
2017-Sep-21 07:30N 29°47' W 092°11'0 0.0
2017-Sep-21 07:01N 29°47' W 092°11'0 0.0
2017-Sep-21 06:31N 29°47' W 092°11'0 0.0
2017-Sep-21 06:00N 29°47' W 092°11'0 0.0
2017-Sep-21 05:30N 29°47' W 092°11'0 0.0
2017-Sep-21 05:01N 29°47' W 092°11'0 0.0
2017-Sep-21 04:30N 29°47' W 092°11'0 0.0
2017-Sep-21 04:01N 29°47' W 092°11'0 0.0
2017-Sep-21 03:31N 29°47' W 092°11'0 0.0
2017-Sep-21 03:01N 29°47' W 092°11'0 0.0
2017-Sep-21 02:31N 29°47' W 092°11'1 2.1
2017-Sep-21 02:01N 29°46' W 092°11'816.1
2017-Sep-21 01:30N 29°39' W 092°16'2 0.3
2017-Sep-20 19:19N 29°40' W 092°15'619.2
2017-Sep-20 19:00N 29°46' W 092°12'1 2.7
2017-Sep-20 18:28N 29°47' W 092°11'0 0.0
2017-Sep-20 17:58N 29°47' W 092°11'0 0.0
2017-Sep-20 17:28N 29°47' W 092°11'0 0.0
2017-Sep-20 16:58N 29°47' W 092°11'0 0.0
2017-Sep-20 16:28N 29°47' W 092°11'0 0.0
2017-Sep-20 15:58N 29°47' W 092°11'0 0.1
2017-Sep-20 15:28N 29°47' W 092°11'2 3.4
2017-Sep-20 15:01N 29°45' W 092°12'7 0.5
2017-Sep-19 23:14N 29°39' W 092°16'625.1
2017-Sep-19 23:01N 29°44' W 092°14'4 7.1
2017-Sep-19 22:30N 29°47' W 092°11'1 1.3
2017-Sep-19 22:00N 29°47' W 092°11'2 3.9
2017-Sep-19 21:30N 29°48' W 092°09'0 0.0
2017-Sep-19 21:00N 29°48' W 092°09'0 0.0
2017-Sep-19 20:30N 29°48' W 092°09'1 2.6
2017-Sep-19 20:00N 29°47' W 092°10'714.3
2017-Sep-19 19:30N 29°41' W 092°15'4 0.5
2017-Sep-19 12:03N 29°38' W 092°16'123.9
2017-Sep-19 12:00N 29°39' W 092°16'918.2
2017-Sep-19 11:30N 29°47' W 092°11'1 1.1
2017-Sep-19 11:00N 29°47' W 092°11'0 0.0
2017-Sep-19 10:30N 29°47' W 092°11'0 0.0
2017-Sep-19 10:00N 29°47' W 092°11'0 0.0
2017-Sep-19 09:30N 29°47' W 092°11'0 0.0
2017-Sep-19 09:00N 29°47' W 092°11'0 0.0
2017-Sep-19 08:30N 29°47' W 092°11'0 0.0
2017-Sep-19 08:00N 29°47' W 092°11'0 0.0
2017-Sep-19 07:30N 29°47' W 092°11'0 0.0
2017-Sep-19 07:00N 29°47' W 092°11'0 0.0
2017-Sep-19 06:30N 29°47' W 092°11'0 0.0
2017-Sep-19 06:00N 29°47' W 092°11'0 0.0
2017-Sep-19 05:30N 29°47' W 092°11'1 1.5
2017-Sep-19 05:00N 29°47' W 092°10'714.7
2017-Sep-19 04:30N 29°40' W 092°15'4 0.2
2017-Sep-18 12:40N 29°37' W 092°17'315.2
2017-Sep-18 12:30N 29°39' W 092°16'816.8
2017-Sep-18 12:00N 29°46' W 092°11'1 1.5
2017-Sep-18 11:30N 29°47' W 092°11'0 0.0
2017-Sep-18 11:00N 29°47' W 092°11'0 0.0
2017-Sep-18 10:30N 29°47' W 092°11'0 0.0
2017-Sep-18 10:00N 29°47' W 092°11'0 0.0
2017-Sep-18 09:30N 29°47' W 092°11'0 0.0
2017-Sep-18 09:00N 29°47' W 092°11'0 0.0
2017-Sep-18 08:30N 29°47' W 092°11'0 0.0
2017-Sep-18 08:00N 29°47' W 092°11'0 0.0
2017-Sep-18 07:30N 29°47' W 092°11'0 0.0
2017-Sep-18 07:00N 29°47' W 092°11'0 0.0
2017-Sep-18 06:30N 29°47' W 092°11'0 0.0
2017-Sep-18 06:00N 29°47' W 092°11'0 0.0
2017-Sep-18 05:30N 29°47' W 092°11'0 0.0
2017-Sep-18 05:00N 29°47' W 092°11'0 0.0
2017-Sep-18 04:30N 29°47' W 092°11'0 0.0
2017-Sep-18 04:00N 29°47' W 092°11'0 0.0
2017-Sep-18 03:30N 29°47' W 092°11'0 0.0
2017-Sep-18 03:00N 29°47' W 092°11'0 0.0
2017-Sep-18 02:30N 29°47' W 092°11'0 0.0
2017-Sep-18 02:00N 29°47' W 092°11'0 0.0
2017-Sep-18 01:30N 29°47' W 092°11'0 0.0
2017-Sep-18 01:00N 29°47' W 092°11'2 4.2
2017-Sep-18 00:30N 29°47' W 092°09'1 1.6
2017-Sep-18 00:00N 29°47' W 092°10'1 2.7
2017-Sep-17 23:30N 29°47' W 092°11'0 0.0
2017-Sep-17 23:00N 29°47' W 092°11'0 0.0
2017-Sep-17 22:30N 29°47' W 092°11'0 0.0
2017-Sep-17 22:00N 29°47' W 092°11'0 0.0
2017-Sep-17 21:30N 29°47' W 092°11'0 0.0
2017-Sep-17 21:00N 29°47' W 092°11'0 0.0
2017-Sep-17 20:30N 29°47' W 092°11'0 0.0
2017-Sep-17 20:00N 29°47' W 092°11'0 0.0
2017-Sep-17 19:30N 29°47' W 092°11'0 0.0
2017-Sep-17 19:00N 29°47' W 092°11'0 0.0
2017-Sep-17 18:30N 29°47' W 092°11'0 0.0
2017-Sep-17 18:00N 29°47' W 092°11'0 0.0
2017-Sep-17 17:30N 29°47' W 092°11'0 0.0
2017-Sep-17 17:00N 29°47' W 092°11'0 0.0
2017-Sep-17 16:30N 29°47' W 092°11'0 0.0
2017-Sep-17 16:00N 29°47' W 092°11'0 0.0
2017-Sep-17 15:30N 29°47' W 092°11'0 0.0
2017-Sep-17 15:00N 29°47' W 092°11'0 0.0
2017-Sep-17 14:30N 29°47' W 092°11'0 0.0
2017-Sep-17 14:00N 29°47' W 092°11'0 0.7
2017-Sep-17 13:30N 29°47' W 092°11'815.8
2017-Sep-17 13:00N 29°40' W 092°15'1 0.1
2017-Sep-17 04:53N 29°41' W 092°15'410.3
2017-Sep-17 04:30N 29°44' W 092°14'3 6.6
2017-Sep-17 04:00N 29°47' W 092°11'0 0.0
2017-Sep-17 03:30N 29°47' W 092°11'0 0.0
2017-Sep-17 03:00N 29°47' W 092°11'0 0.0
2017-Sep-17 02:30N 29°47' W 092°11'2 4.4
2017-Sep-17 02:01N 29°47' W 092°09'0 0.7
2017-Sep-17 01:30N 29°47' W 092°09'0 0.8
2017-Sep-17 01:00N 29°47' W 092°09'2 3.7
2017-Sep-17 00:30N 29°47' W 092°11'715.0
2017-Sep-17 00:01N 29°40' W 092°15'2 0.2
2017-Sep-16 14:40N 29°38' W 092°16'214.9
2017-Sep-16 14:30N 29°41' W 092°15'714.5
2017-Sep-16 14:00N 29°47' W 092°11'1 1.3
2017-Sep-16 13:31N 29°47' W 092°11'0 0.0
2017-Sep-16 13:00N 29°47' W 092°11'0 0.0
2017-Sep-16 12:31N 29°47' W 092°11'0 0.0
2017-Sep-16 12:01N 29°47' W 092°11'0 0.0
2017-Sep-16 11:31N 29°47' W 092°11'0 0.1
2017-Sep-16 11:01N 29°47' W 092°11'0 0.0
2017-Sep-16 10:31N 29°47' W 092°11'0 0.0
2017-Sep-16 10:01N 29°47' W 092°11'0 0.0
2017-Sep-16 09:31N 29°47' W 092°11'0 0.0
2017-Sep-16 09:01N 29°47' W 092°11'0 0.0
2017-Sep-16 08:30N 29°47' W 092°11'0 0.0
2017-Sep-16 08:01N 29°47' W 092°11'0 0.0
2017-Sep-16 07:31N 29°47' W 092°11'0 0.0
2017-Sep-16 07:01N 29°47' W 092°11'0 0.0
2017-Sep-16 06:31N 29°47' W 092°11'0 0.0
2017-Sep-16 06:01N 29°47' W 092°11'0 0.0
2017-Sep-16 05:31N 29°47' W 092°11'0 0.0
2017-Sep-16 05:01N 29°47' W 092°11'1 1.3
2017-Sep-16 04:31N 29°47' W 092°11'918.5
2017-Sep-16 04:01N 29°39' W 092°16'3 1.3
2017-Sep-16 02:01N 29°41' W 092°15'712.6
2017-Sep-16 01:29N 29°47' W 092°11'0 0.2
2017-Sep-16 01:00N 29°47' W 092°11'0 0.0
2017-Sep-16 00:30N 29°47' W 092°11'612.2
2017-Sep-16 00:01N 29°42' W 092°15'3 0.1
2017-Sep-14 17:34N 29°38' W 092°16'215.9
2017-Sep-14 17:25N 29°41' W 092°15'716.7
2017-Sep-14 17:00N 29°46' W 092°11'1 1.5
2017-Sep-14 16:30N 29°47' W 092°11'0 0.0
2017-Sep-14 16:00N 29°47' W 092°11'0 0.0
2017-Sep-14 15:30N 29°47' W 092°11'2 3.4
2017-Sep-14 15:01N 29°45' W 092°12'8 1.1
2017-Sep-14 08:08N 29°38' W 092°16'217.5
2017-Sep-14 08:00N 29°40' W 092°15'714.3
2017-Sep-14 07:30N 29°46' W 092°11'1 1.5
2017-Sep-14 07:00N 29°47' W 092°11'0 0.0
2017-Sep-14 06:30N 29°47' W 092°11'0 0.0
2017-Sep-14 06:00N 29°47' W 092°11'0 0.0
2017-Sep-14 05:30N 29°47' W 092°11'0 0.0
2017-Sep-14 05:00N 29°47' W 092°11'0 0.0
2017-Sep-14 04:30N 29°47' W 092°11'0 0.0
2017-Sep-14 04:00N 29°47' W 092°11'0 0.0
2017-Sep-14 03:31N 29°47' W 092°11'0 0.0
2017-Sep-14 03:00N 29°47' W 092°11'0 0.0
2017-Sep-14 02:30N 29°47' W 092°11'0 0.0
2017-Sep-14 02:00N 29°47' W 092°11'0 0.0
2017-Sep-14 01:30N 29°47' W 092°11'0 0.0
2017-Sep-14 01:00N 29°47' W 092°11'0 0.0
2017-Sep-14 00:30N 29°47' W 092°11'1 1.5
2017-Sep-14 00:01N 29°46' W 092°11'1120.9
2017-Sep-13 23:30N 29°37' W 092°17'1 0.2
2017-Sep-13 17:46N 29°38' W 092°16'414.1
2017-Sep-13 17:31N 29°42' W 092°15'611.8
2017-Sep-13 17:00N 29°47' W 092°11'0 0.0
2017-Sep-13 16:30N 29°47' W 092°11'0 0.0
2017-Sep-13 16:00N 29°47' W 092°11'0 0.0
2017-Sep-13 15:30N 29°47' W 092°11'0 0.0
2017-Sep-13 15:00N 29°47' W 092°11'0 0.0
2017-Sep-13 14:30N 29°47' W 092°11'0 0.0
2017-Sep-13 14:00N 29°47' W 092°11'0 0.0
2017-Sep-13 13:30N 29°47' W 092°11'0 0.0
2017-Sep-13 13:00N 29°47' W 092°11'0 0.0
2017-Sep-13 12:30N 29°47' W 092°11'0 0.0
2017-Sep-13 12:00N 29°47' W 092°11'0 0.0
2017-Sep-13 11:30N 29°47' W 092°11'0 0.0
2017-Sep-13 11:00N 29°47' W 092°11'0 0.1
2017-Sep-13 10:30N 29°47' W 092°11'0 0.0
2017-Sep-13 10:00N 29°47' W 092°11'0 0.0
2017-Sep-13 09:30N 29°47' W 092°11'0 0.0
2017-Sep-13 09:00N 29°47' W 092°11'0 0.0
2017-Sep-13 08:30N 29°47' W 092°11'0 0.0
2017-Sep-13 08:00N 29°47' W 092°11'0 0.0
2017-Sep-13 07:30N 29°47' W 092°11'0 0.0
2017-Sep-13 07:00N 29°47' W 092°11'0 0.0
2017-Sep-13 06:30N 29°47' W 092°11'0 0.0
2017-Sep-13 06:00N 29°47' W 092°11'0 0.0
2017-Sep-13 05:30N 29°47' W 092°11'0 0.0
2017-Sep-13 05:00N 29°47' W 092°11'0 0.0
2017-Sep-13 04:30N 29°47' W 092°11'0 0.0
2017-Sep-13 04:00N 29°47' W 092°11'1 1.7
2017-Sep-13 03:31N 29°46' W 092°11'1222.1
2017-Sep-13 02:58N 29°36' W 092°18'5 0.6
2017-Sep-12 17:35N 29°40' W 092°15'114.5
2017-Sep-12 17:30N 29°42' W 092°15'612.3
2017-Sep-12 17:01N 29°47' W 092°11'0 0.2
2017-Sep-12 16:31N 29°47' W 092°11'2 4.6
2017-Sep-12 16:01N 29°47' W 092°09'0 0.0
2017-Sep-12 15:30N 29°47' W 092°09'0 0.1
2017-Sep-12 15:00N 29°47' W 092°09'2 4.7
2017-Sep-12 14:31N 29°47' W 092°11'0 0.0
2017-Sep-12 14:00N 29°47' W 092°11'0 0.0
2017-Sep-12 13:29N 29°47' W 092°11'613.0
2017-Sep-12 12:59N 29°41' W 092°15'1 0.1
2017-Sep-12 06:26N 29°40' W 092°15'717.3
2017-Sep-12 06:01N 29°47' W 092°11'0 0.2
2017-Sep-12 05:29N 29°47' W 092°11'0 0.0
2017-Sep-12 05:00N 29°47' W 092°11'0 0.0
2017-Sep-12 04:30N 29°47' W 092°11'0 0.0
2017-Sep-12 04:00N 29°47' W 092°11'0 0.0
2017-Sep-12 03:30N 29°47' W 092°11'3 6.9
2017-Sep-12 03:01N 29°44' W 092°14'  

Dump ship's entire track history